sensor_id;sensor_type;location;lat;lon;timestamp;temperature;humidity
61912;DHT22;49973;52.084;5.412;2024-03-08T00:01:06;3.30;99.90
61912;DHT22;49973;52.084;5.412;2024-03-08T00:03:36;3.40;99.90
61912;DHT22;49973;52.084;5.412;2024-03-08T00:06:05;3.20;99.90
61912;DHT22;49973;52.084;5.412;2024-03-08T00:08:34;3.20;99.90
61912;DHT22;49973;52.084;5.412;2024-03-08T00:11:03;3.20;99.90
61912;DHT22;49973;52.084;5.412;2024-03-08T00:13:32;3.20;99.90
61912;DHT22;49973;52.084;5.412;2024-03-08T00:16:01;3.20;99.90
61912;DHT22;49973;52.084;5.412;2024-03-08T00:18:30;3.00;99.90
61912;DHT22;49973;52.084;5.412;2024-03-08T00:21:01;3.20;99.90
61912;DHT22;49973;52.084;5.412;2024-03-08T00:23:30;3.10;99.90
61912;DHT22;49973;52.084;5.412;2024-03-08T00:26:01;3.10;99.90
61912;DHT22;49973;52.084;5.412;2024-03-08T00:28:31;3.30;99.90
61912;DHT22;49973;52.084;5.412;2024-03-08T00:31:01;3.10;99.90
61912;DHT22;49973;52.084;5.412;2024-03-08T00:33:32;3.10;99.90
61912;DHT22;49973;52.084;5.412;2024-03-08T00:36:02;3.00;99.90
61912;DHT22;49973;52.084;5.412;2024-03-08T00:38:31;3.00;99.90
61912;DHT22;49973;52.084;5.412;2024-03-08T00:41:01;3.00;99.90
61912;DHT22;49973;52.084;5.412;2024-03-08T00:43:30;2.90;99.90
61912;DHT22;49973;52.084;5.412;2024-03-08T00:45:59;2.90;99.90
61912;DHT22;49973;52.084;5.412;2024-03-08T00:48:28;2.90;99.90
61912;DHT22;49973;52.084;5.412;2024-03-08T00:50:58;2.80;99.90
61912;DHT22;49973;52.084;5.412;2024-03-08T00:53:28;2.80;99.90
61912;DHT22;49973;52.084;5.412;2024-03-08T00:55:57;2.80;99.90
61912;DHT22;49973;52.084;5.412;2024-03-08T00:58:28;2.80;99.90
61912;DHT22;49973;52.084;5.412;2024-03-08T01:00:57;2.80;99.90
61912;DHT22;49973;52.084;5.412;2024-03-08T01:03:27;2.80;99.90
61912;DHT22;49973;52.084;5.412;2024-03-08T01:05:59;2.70;99.90
61912;DHT22;49973;52.084;5.412;2024-03-08T01:08:30;2.70;99.90
61912;DHT22;49973;52.084;5.412;2024-03-08T01:10:59;2.70;99.90
61912;DHT22;49973;52.084;5.412;2024-03-08T01:13:27;2.60;99.90
61912;DHT22;49973;52.084;5.412;2024-03-08T01:15:56;2.60;99.90
61912;DHT22;49973;52.084;5.412;2024-03-08T01:18:25;2.60;99.90
61912;DHT22;49973;52.084;5.412;2024-03-08T01:20:54;2.50;99.90
61912;DHT22;49973;52.084;5.412;2024-03-08T01:23:23;2.50;99.90
61912;DHT22;49973;52.084;5.412;2024-03-08T01:25:53;2.50;99.90
61912;DHT22;49973;52.084;5.412;2024-03-08T01:28:25;2.40;99.90
61912;DHT22;49973;52.084;5.412;2024-03-08T01:30:54;2.40;99.90
61912;DHT22;49973;52.084;5.412;2024-03-08T01:33:24;2.40;99.90
61912;DHT22;49973;52.084;5.412;2024-03-08T01:35:53;2.40;99.90
61912;DHT22;49973;52.084;5.412;2024-03-08T01:38:22;2.40;99.90
61912;DHT22;49973;52.084;5.412;2024-03-08T01:40:52;2.30;99.90
61912;DHT22;49973;52.084;5.412;2024-03-08T01:43:23;2.30;99.90
61912;DHT22;49973;52.084;5.412;2024-03-08T01:45:55;2.20;99.90
61912;DHT22;49973;52.084;5.412;2024-03-08T01:48:25;2.20;99.90
61912;DHT22;49973;52.084;5.412;2024-03-08T01:50:54;2.30;99.90
61912;DHT22;49973;52.084;5.412;2024-03-08T01:53:24;2.20;99.90
61912;DHT22;49973;52.084;5.412;2024-03-08T01:55:57;2.10;99.90
61912;DHT22;49973;52.084;5.412;2024-03-08T01:58:27;2.10;99.90
61912;DHT22;49973;52.084;5.412;2024-03-08T02:00:57;2.00;99.90
61912;DHT22;49973;52.084;5.412;2024-03-08T02:03:26;2.10;99.90
61912;DHT22;49973;52.084;5.412;2024-03-08T02:05:55;2.00;99.90
61912;DHT22;49973;52.084;5.412;2024-03-08T02:08:24;2.00;99.90
61912;DHT22;49973;52.084;5.412;2024-03-08T02:10:53;2.00;99.90
61912;DHT22;49973;52.084;5.412;2024-03-08T02:13:23;1.90;99.90
61912;DHT22;49973;52.084;5.412;2024-03-08T02:15:53;1.90;99.90
61912;DHT22;49973;52.084;5.412;2024-03-08T02:18:22;1.80;99.90
61912;DHT22;49973;52.084;5.412;2024-03-08T02:20:54;1.80;99.90
61912;DHT22;49973;52.084;5.412;2024-03-08T02:23:23;1.80;99.90
61912;DHT22;49973;52.084;5.412;2024-03-08T02:25:53;1.80;99.90
61912;DHT22;49973;52.084;5.412;2024-03-08T02:28:23;1.70;99.90
61912;DHT22;49973;52.084;5.412;2024-03-08T02:30:53;1.70;99.90
61912;DHT22;49973;52.084;5.412;2024-03-08T02:33:23;1.70;99.90
61912;DHT22;49973;52.084;5.412;2024-03-08T02:35:54;1.70;99.90
61912;DHT22;49973;52.084;5.412;2024-03-08T02:38:24;1.60;99.90
61912;DHT22;49973;52.084;5.412;2024-03-08T02:40:54;1.60;99.90
61912;DHT22;49973;52.084;5.412;2024-03-08T02:43:23;1.60;99.90
61912;DHT22;49973;52.084;5.412;2024-03-08T02:45:54;1.60;99.90
61912;DHT22;49973;52.084;5.412;2024-03-08T02:48:23;1.50;99.90
61912;DHT22;49973;52.084;5.412;2024-03-08T02:50:53;1.50;99.90
61912;DHT22;49973;52.084;5.412;2024-03-08T02:53:22;1.50;99.90
61912;DHT22;49973;52.084;5.412;2024-03-08T02:55:52;1.40;99.90
61912;DHT22;49973;52.084;5.412;2024-03-08T02:58:22;1.40;99.90
61912;DHT22;49973;52.084;5.412;2024-03-08T03:00:51;1.40;99.90
61912;DHT22;49973;52.084;5.412;2024-03-08T03:03:20;1.30;99.90
61912;DHT22;49973;52.084;5.412;2024-03-08T03:05:49;1.50;99.90
61912;DHT22;49973;52.084;5.412;2024-03-08T03:08:19;1.30;99.90
61912;DHT22;49973;52.084;5.412;2024-03-08T03:10:48;1.30;99.90
61912;DHT22;49973;52.084;5.412;2024-03-08T03:13:16;1.20;99.90
61912;DHT22;49973;52.084;5.412;2024-03-08T03:15:47;1.20;99.90
61912;DHT22;49973;52.084;5.412;2024-03-08T03:18:15;1.10;99.90
61912;DHT22;49973;52.084;5.412;2024-03-08T03:20:45;1.10;99.90
61912;DHT22;49973;52.084;5.412;2024-03-08T03:23:14;1.10;99.90
61912;DHT22;49973;52.084;5.412;2024-03-08T03:25:49;1.10;99.90
61912;DHT22;49973;52.084;5.412;2024-03-08T03:28:19;1.00;99.90
61912;DHT22;49973;52.084;5.412;2024-03-08T03:30:51;1.00;99.90
61912;DHT22;49973;52.084;5.412;2024-03-08T03:33:20;1.00;99.90
61912;DHT22;49973;52.084;5.412;2024-03-08T03:35:49;1.00;99.90
61912;DHT22;49973;52.084;5.412;2024-03-08T03:38:19;0.90;99.90
61912;DHT22;49973;52.084;5.412;2024-03-08T03:40:52;0.90;99.90
61912;DHT22;49973;52.084;5.412;2024-03-08T03:43:24;0.90;99.90
61912;DHT22;49973;52.084;5.412;2024-03-08T03:45:53;0.90;99.90
61912;DHT22;49973;52.084;5.412;2024-03-08T03:48:23;0.90;99.90
61912;DHT22;49973;52.084;5.412;2024-03-08T03:50:52;0.90;99.90
61912;DHT22;49973;52.084;5.412;2024-03-08T03:53:20;0.90;99.90
61912;DHT22;49973;52.084;5.412;2024-03-08T03:55:49;1.00;99.90
61912;DHT22;49973;52.084;5.412;2024-03-08T03:58:19;1.00;99.90
61912;DHT22;49973;52.084;5.412;2024-03-08T04:00:50;1.00;99.90
61912;DHT22;49973;52.084;5.412;2024-03-08T04:03:19;1.00;99.90
61912;DHT22;49973;52.084;5.412;2024-03-08T04:05:47;1.10;99.90
61912;DHT22;49973;52.084;5.412;2024-03-08T04:08:16;1.10;99.90
61912;DHT22;49973;52.084;5.412;2024-03-08T04:10:45;1.30;99.90
61912;DHT22;49973;52.084;5.412;2024-03-08T04:13:14;1.30;99.90
61912;DHT22;49973;52.084;5.412;2024-03-08T04:15:45;1.30;99.90
61912;DHT22;49973;52.084;5.412;2024-03-08T04:18:16;1.40;99.90
61912;DHT22;49973;52.084;5.412;2024-03-08T04:20:46;1.40;99.90
61912;DHT22;49973;52.084;5.412;2024-03-08T04:23:15;1.40;99.90
61912;DHT22;49973;52.084;5.412;2024-03-08T04:25:45;1.50;99.90
61912;DHT22;49973;52.084;5.412;2024-03-08T04:28:13;1.50;99.90
61912;DHT22;49973;52.084;5.412;2024-03-08T04:30:43;1.50;99.90
61912;DHT22;49973;52.084;5.412;2024-03-08T04:33:15;1.50;99.90
61912;DHT22;49973;52.084;5.412;2024-03-08T04:35:46;1.50;99.90
61912;DHT22;49973;52.084;5.412;2024-03-08T04:38:14;1.50;99.90
61912;DHT22;49973;52.084;5.412;2024-03-08T04:40:43;1.60;99.90
61912;DHT22;49973;52.084;5.412;2024-03-08T04:43:12;1.60;99.90
61912;DHT22;49973;52.084;5.412;2024-03-08T04:45:42;1.60;99.90
61912;DHT22;49973;52.084;5.412;2024-03-08T04:48:11;1.60;99.90
61912;DHT22;49973;52.084;5.412;2024-03-08T04:50:41;1.50;99.90
61912;DHT22;49973;52.084;5.412;2024-03-08T04:53:12;1.60;99.90
61912;DHT22;49973;52.084;5.412;2024-03-08T04:55:41;1.50;99.90
61912;DHT22;49973;52.084;5.412;2024-03-08T04:58:09;1.50;99.90
61912;DHT22;49973;52.084;5.412;2024-03-08T05:00:40;1.50;99.90
61912;DHT22;49973;52.084;5.412;2024-03-08T05:03:09;1.50;99.90
61912;DHT22;49973;52.084;5.412;2024-03-08T05:05:38;1.50;99.90
61912;DHT22;49973;52.084;5.412;2024-03-08T05:08:08;1.50;99.90
61912;DHT22;49973;52.084;5.412;2024-03-08T05:10:36;1.50;99.90
61912;DHT22;49973;52.084;5.412;2024-03-08T05:13:05;1.50;99.90
61912;DHT22;49973;52.084;5.412;2024-03-08T05:15:34;1.50;99.90
61912;DHT22;49973;52.084;5.412;2024-03-08T05:18:04;1.50;99.90
61912;DHT22;49973;52.084;5.412;2024-03-08T05:20:33;1.50;99.90
61912;DHT22;49973;52.084;5.412;2024-03-08T05:23:04;1.50;99.90
61912;DHT22;49973;52.084;5.412;2024-03-08T05:25:34;1.50;99.90
61912;DHT22;49973;52.084;5.412;2024-03-08T05:28:04;1.50;99.90
61912;DHT22;49973;52.084;5.412;2024-03-08T05:30:33;1.50;99.90
61912;DHT22;49973;52.084;5.412;2024-03-08T05:33:04;1.60;99.90
61912;DHT22;49973;52.084;5.412;2024-03-08T05:35:33;1.40;99.90
61912;DHT22;49973;52.084;5.412;2024-03-08T05:38:03;1.50;99.90
61912;DHT22;49973;52.084;5.412;2024-03-08T05:40:33;1.50;99.90
61912;DHT22;49973;52.084;5.412;2024-03-08T05:43:02;1.40;99.90
61912;DHT22;49973;52.084;5.412;2024-03-08T05:45:31;1.40;99.90
61912;DHT22;49973;52.084;5.412;2024-03-08T05:48:00;1.40;99.90
61912;DHT22;49973;52.084;5.412;2024-03-08T05:50:29;1.40;99.90
61912;DHT22;49973;52.084;5.412;2024-03-08T05:52:58;1.40;99.90
61912;DHT22;49973;52.084;5.412;2024-03-08T05:55:26;1.40;99.90
61912;DHT22;49973;52.084;5.412;2024-03-08T05:57:58;1.40;99.90
61912;DHT22;49973;52.084;5.412;2024-03-08T06:00:28;1.40;99.90
61912;DHT22;49973;52.084;5.412;2024-03-08T06:02:58;1.40;99.90
61912;DHT22;49973;52.084;5.412;2024-03-08T06:05:27;1.40;99.90
61912;DHT22;49973;52.084;5.412;2024-03-08T06:07:56;1.40;99.90
61912;DHT22;49973;52.084;5.412;2024-03-08T06:10:25;1.30;99.90
61912;DHT22;49973;52.084;5.412;2024-03-08T06:12:53;1.30;99.90
61912;DHT22;49973;52.084;5.412;2024-03-08T06:15:23;1.30;99.90
61912;DHT22;49973;52.084;5.412;2024-03-08T06:17:52;1.30;99.90
61912;DHT22;49973;52.084;5.412;2024-03-08T06:20:21;1.40;99.90
61912;DHT22;49973;52.084;5.412;2024-03-08T06:22:53;1.40;99.90
61912;DHT22;49973;52.084;5.412;2024-03-08T06:25:22;1.40;99.90
61912;DHT22;49973;52.084;5.412;2024-03-08T06:27:51;1.40;99.90
61912;DHT22;49973;52.084;5.412;2024-03-08T06:30:20;1.40;99.90
61912;DHT22;49973;52.084;5.412;2024-03-08T06:32:51;1.40;99.90
61912;DHT22;49973;52.084;5.412;2024-03-08T06:35:20;1.40;99.90
61912;DHT22;49973;52.084;5.412;2024-03-08T06:37:49;1.40;99.90
61912;DHT22;49973;52.084;5.412;2024-03-08T06:40:17;1.40;99.90
61912;DHT22;49973;52.084;5.412;2024-03-08T06:42:46;1.50;99.90
61912;DHT22;49973;52.084;5.412;2024-03-08T06:45:15;1.50;99.90
61912;DHT22;49973;52.084;5.412;2024-03-08T06:47:48;1.50;99.90
61912;DHT22;49973;52.084;5.412;2024-03-08T06:50:18;1.60;99.90
61912;DHT22;49973;52.084;5.412;2024-03-08T06:52:47;1.60;99.90
61912;DHT22;49973;52.084;5.412;2024-03-08T06:55:21;1.70;99.90
61912;DHT22;49973;52.084;5.412;2024-03-08T06:57:49;1.70;99.90
61912;DHT22;49973;52.084;5.412;2024-03-08T07:00:18;1.80;99.90
61912;DHT22;49973;52.084;5.412;2024-03-08T07:02:50;1.80;99.90
61912;DHT22;49973;52.084;5.412;2024-03-08T07:05:22;1.90;99.90
61912;DHT22;49973;52.084;5.412;2024-03-08T07:07:56;1.90;99.90
61912;DHT22;49973;52.084;5.412;2024-03-08T07:10:25;2.00;99.90
61912;DHT22;49973;52.084;5.412;2024-03-08T07:12:56;2.10;99.90
61912;DHT22;49973;52.084;5.412;2024-03-08T07:15:24;2.30;99.90
61912;DHT22;49973;52.084;5.412;2024-03-08T07:17:53;2.60;99.90
61912;DHT22;49973;52.084;5.412;2024-03-08T07:20:23;3.10;99.90
61912;DHT22;49973;52.084;5.412;2024-03-08T07:22:52;3.70;99.90
61912;DHT22;49973;52.084;5.412;2024-03-08T07:25:21;4.30;99.90
61912;DHT22;49973;52.084;5.412;2024-03-08T07:27:52;4.90;99.90
61912;DHT22;49973;52.084;5.412;2024-03-08T07:30:22;5.40;99.90
61912;DHT22;49973;52.084;5.412;2024-03-08T07:33:28;5.80;99.90
61912;DHT22;49973;52.084;5.412;2024-03-08T07:35:59;6.50;99.90
61912;DHT22;49973;52.084;5.412;2024-03-08T07:38:28;6.80;99.90
61912;DHT22;49973;52.084;5.412;2024-03-08T07:40:57;7.20;99.90
61912;DHT22;49973;52.084;5.412;2024-03-08T07:43:26;7.60;99.90
61912;DHT22;49973;52.084;5.412;2024-03-08T07:45:55;7.90;99.90
61912;DHT22;49973;52.084;5.412;2024-03-08T07:48:24;8.20;99.90
61912;DHT22;49973;52.084;5.412;2024-03-08T07:50:53;8.50;99.90
61912;DHT22;49973;52.084;5.412;2024-03-08T07:53:24;8.60;99.90
61912;DHT22;49973;52.084;5.412;2024-03-08T07:55:54;8.80;99.90
61912;DHT22;49973;52.084;5.412;2024-03-08T07:58:22;9.00;99.90
61912;DHT22;49973;52.084;5.412;2024-03-08T08:00:51;9.20;99.90
61912;DHT22;49973;52.084;5.412;2024-03-08T08:03:20;9.30;99.90
61912;DHT22;49973;52.084;5.412;2024-03-08T08:05:48;9.50;99.90
61912;DHT22;49973;52.084;5.412;2024-03-08T08:08:17;9.70;99.90
61912;DHT22;49973;52.084;5.412;2024-03-08T08:10:47;10.00;99.90
61912;DHT22;49973;52.084;5.412;2024-03-08T08:13:17;10.20;99.90
61912;DHT22;49973;52.084;5.412;2024-03-08T08:15:46;10.30;99.90
61912;DHT22;49973;52.084;5.412;2024-03-08T08:18:15;10.40;99.90
61912;DHT22;49973;52.084;5.412;2024-03-08T08:20:46;10.60;99.90
61912;DHT22;49973;52.084;5.412;2024-03-08T08:23:15;10.70;99.90
61912;DHT22;49973;52.084;5.412;2024-03-08T08:25:44;10.60;99.90
61912;DHT22;49973;52.084;5.412;2024-03-08T08:28:14;10.20;99.90
61912;DHT22;49973;52.084;5.412;2024-03-08T08:30:45;9.60;99.90
61912;DHT22;49973;52.084;5.412;2024-03-08T08:33:13;9.00;99.90
61912;DHT22;49973;52.084;5.412;2024-03-08T08:35:42;8.50;99.90
61912;DHT22;49973;52.084;5.412;2024-03-08T08:38:11;8.10;99.90
61912;DHT22;49973;52.084;5.412;2024-03-08T08:40:40;7.70;99.90
61912;DHT22;49973;52.084;5.412;2024-03-08T08:43:09;7.40;99.90
61912;DHT22;49973;52.084;5.412;2024-03-08T08:45:39;7.10;99.90
61912;DHT22;49973;52.084;5.412;2024-03-08T08:48:08;6.80;99.90
61912;DHT22;49973;52.084;5.412;2024-03-08T08:50:37;6.70;99.90
61912;DHT22;49973;52.084;5.412;2024-03-08T08:53:06;6.50;99.90
61912;DHT22;49973;52.084;5.412;2024-03-08T08:55:35;6.40;99.90
61912;DHT22;49973;52.084;5.412;2024-03-08T08:58:04;6.40;99.90
61912;DHT22;49973;52.084;5.412;2024-03-08T09:00:34;6.30;99.90
61912;DHT22;49973;52.084;5.412;2024-03-08T09:03:05;6.30;99.90
61912;DHT22;49973;52.084;5.412;2024-03-08T09:05:34;6.30;99.90
61912;DHT22;49973;52.084;5.412;2024-03-08T09:08:06;6.40;99.90
61912;DHT22;49973;52.084;5.412;2024-03-08T09:10:36;6.40;99.90
61912;DHT22;49973;52.084;5.412;2024-03-08T09:13:06;6.50;99.90
61912;DHT22;49973;52.084;5.412;2024-03-08T09:15:44;6.50;99.90
61912;DHT22;49973;52.084;5.412;2024-03-08T09:18:14;6.50;99.90
61912;DHT22;49973;52.084;5.412;2024-03-08T09:20:45;6.60;99.90
61912;DHT22;49973;52.084;5.412;2024-03-08T09:23:14;6.60;99.90
61912;DHT22;49973;52.084;5.412;2024-03-08T09:25:44;6.60;99.90
61912;DHT22;49973;52.084;5.412;2024-03-08T09:28:14;6.70;99.90
61912;DHT22;49973;52.084;5.412;2024-03-08T09:30:43;6.80;99.90
61912;DHT22;49973;52.084;5.412;2024-03-08T09:33:27;6.70;99.90
61912;DHT22;49973;52.084;5.412;2024-03-08T09:35:56;6.90;99.90
61912;DHT22;49973;52.084;5.412;2024-03-08T09:38:30;6.90;99.90
61912;DHT22;49973;52.084;5.412;2024-03-08T09:40:58;7.00;99.90
61912;DHT22;49973;52.084;5.412;2024-03-08T09:43:29;7.10;99.90
61912;DHT22;49973;52.084;5.412;2024-03-08T09:45:58;7.20;99.90
61912;DHT22;49973;52.084;5.412;2024-03-08T09:48:28;7.30;99.90
61912;DHT22;49973;52.084;5.412;2024-03-08T09:50:57;7.40;99.90
61912;DHT22;49973;52.084;5.412;2024-03-08T09:53:26;7.50;99.90
61912;DHT22;49973;52.084;5.412;2024-03-08T09:55:55;7.60;99.90
61912;DHT22;49973;52.084;5.412;2024-03-08T09:58:24;7.70;99.90
61912;DHT22;49973;52.084;5.412;2024-03-08T10:01:23;7.70;99.90
61912;DHT22;49973;52.084;5.412;2024-03-08T10:03:55;7.80;99.90
61912;DHT22;49973;52.084;5.412;2024-03-08T10:06:25;7.90;99.90
61912;DHT22;49973;52.084;5.412;2024-03-08T10:08:54;8.00;99.90
61912;DHT22;49973;52.084;5.412;2024-03-08T10:11:24;8.10;99.90
61912;DHT22;49973;52.084;5.412;2024-03-08T10:13:54;8.20;99.90
61912;DHT22;49973;52.084;5.412;2024-03-08T10:16:26;8.30;99.90
61912;DHT22;49973;52.084;5.412;2024-03-08T10:18:57;8.40;99.90
61912;DHT22;49973;52.084;5.412;2024-03-08T10:21:28;8.50;99.90
61912;DHT22;49973;52.084;5.412;2024-03-08T10:23:56;8.60;99.90
61912;DHT22;49973;52.084;5.412;2024-03-08T10:26:26;8.60;99.90
61912;DHT22;49973;52.084;5.412;2024-03-08T10:28:55;8.70;99.90
61912;DHT22;49973;52.084;5.412;2024-03-08T10:31:25;8.80;99.90
61912;DHT22;49973;52.084;5.412;2024-03-08T10:33:54;8.90;99.90
61912;DHT22;49973;52.084;5.412;2024-03-08T10:36:24;8.90;99.90
61912;DHT22;49973;52.084;5.412;2024-03-08T10:38:53;9.00;99.90
61912;DHT22;49973;52.084;5.412;2024-03-08T10:41:23;9.10;99.90
61912;DHT22;49973;52.084;5.412;2024-03-08T10:44:07;9.20;99.90
61912;DHT22;49973;52.084;5.412;2024-03-08T10:46:47;9.20;99.90
61912;DHT22;49973;52.084;5.412;2024-03-08T10:49:18;9.20;99.90
61912;DHT22;49973;52.084;5.412;2024-03-08T10:51:51;9.30;99.90
61912;DHT22;49973;52.084;5.412;2024-03-08T10:54:21;9.30;99.90
61912;DHT22;49973;52.084;5.412;2024-03-08T10:56:52;9.30;99.90
61912;DHT22;49973;52.084;5.412;2024-03-08T10:59:21;9.30;99.90
61912;DHT22;49973;52.084;5.412;2024-03-08T11:01:51;9.40;99.90
61912;DHT22;49973;52.084;5.412;2024-03-08T11:04:20;9.40;99.90
61912;DHT22;49973;52.084;5.412;2024-03-08T11:06:52;9.50;99.90
61912;DHT22;49973;52.084;5.412;2024-03-08T11:09:28;9.50;99.90
61912;DHT22;49973;52.084;5.412;2024-03-08T11:12:18;9.50;99.90
61912;DHT22;49973;52.084;5.412;2024-03-08T11:14:48;9.60;99.90
61912;DHT22;49973;52.084;5.412;2024-03-08T11:17:21;9.70;99.90
61912;DHT22;49973;52.084;5.412;2024-03-08T11:19:50;9.70;99.90
61912;DHT22;49973;52.084;5.412;2024-03-08T11:22:27;9.80;99.90
61912;DHT22;49973;52.084;5.412;2024-03-08T11:24:59;9.90;99.90
61912;DHT22;49973;52.084;5.412;2024-03-08T11:27:30;10.00;99.90
61912;DHT22;49973;52.084;5.412;2024-03-08T11:30:01;10.00;99.90
61912;DHT22;49973;52.084;5.412;2024-03-08T11:32:45;10.10;99.90
61912;DHT22;49973;52.084;5.412;2024-03-08T11:35:18;10.20;99.90
61912;DHT22;49973;52.084;5.412;2024-03-08T11:37:48;10.30;99.90
61912;DHT22;49973;52.084;5.412;2024-03-08T11:40:18;10.40;99.90
61912;DHT22;49973;52.084;5.412;2024-03-08T11:42:49;10.40;99.90
61912;DHT22;49973;52.084;5.412;2024-03-08T11:45:19;10.50;99.90
61912;DHT22;49973;52.084;5.412;2024-03-08T11:47:49;10.50;99.90
61912;DHT22;49973;52.084;5.412;2024-03-08T11:50:20;10.60;99.90
61912;DHT22;49973;52.084;5.412;2024-03-08T11:52:52;10.70;99.90
61912;DHT22;49973;52.084;5.412;2024-03-08T11:55:21;10.80;99.90
61912;DHT22;49973;52.084;5.412;2024-03-08T11:58:00;10.80;99.90
61912;DHT22;49973;52.084;5.412;2024-03-08T12:00:28;10.90;99.90
61912;DHT22;49973;52.084;5.412;2024-03-08T12:03:03;11.00;99.90
61912;DHT22;49973;52.084;5.412;2024-03-08T12:05:33;11.10;99.90
61912;DHT22;49973;52.084;5.412;2024-03-08T12:08:05;11.10;99.90
61912;DHT22;49973;52.084;5.412;2024-03-08T12:10:34;11.20;99.90
61912;DHT22;49973;52.084;5.412;2024-03-08T12:13:04;11.20;99.90
61912;DHT22;49973;52.084;5.412;2024-03-08T12:15:40;11.20;99.90
61912;DHT22;49973;52.084;5.412;2024-03-08T12:18:11;11.20;99.90
61912;DHT22;49973;52.084;5.412;2024-03-08T12:20:40;11.20;99.90
61912;DHT22;49973;52.084;5.412;2024-03-08T12:23:15;11.20;99.90
61912;DHT22;49973;52.084;5.412;2024-03-08T12:25:45;11.30;99.90
61912;DHT22;49973;52.084;5.412;2024-03-08T12:28:15;11.30;99.90
61912;DHT22;49973;52.084;5.412;2024-03-08T12:30:47;11.30;99.90
61912;DHT22;49973;52.084;5.412;2024-03-08T12:33:16;11.40;99.90
61912;DHT22;49973;52.084;5.412;2024-03-08T12:35:51;11.40;99.90
61912;DHT22;49973;52.084;5.412;2024-03-08T12:38:28;11.30;99.90
61912;DHT22;49973;52.084;5.412;2024-03-08T12:41:00;11.30;99.90
61912;DHT22;49973;52.084;5.412;2024-03-08T12:43:30;11.30;99.90
61912;DHT22;49973;52.084;5.412;2024-03-08T12:45:59;11.30;99.90
61912;DHT22;49973;52.084;5.412;2024-03-08T12:48:28;11.20;99.90
61912;DHT22;49973;52.084;5.412;2024-03-08T12:50:57;11.20;99.90
61912;DHT22;49973;52.084;5.412;2024-03-08T12:53:27;11.20;99.90
61912;DHT22;49973;52.084;5.412;2024-03-08T12:55:56;11.20;99.90
61912;DHT22;49973;52.084;5.412;2024-03-08T12:58:25;11.20;99.90
61912;DHT22;49973;52.084;5.412;2024-03-08T13:00:54;11.20;99.90
61912;DHT22;49973;52.084;5.412;2024-03-08T13:03:23;11.10;99.90
61912;DHT22;49973;52.084;5.412;2024-03-08T13:05:52;11.10;99.90
61912;DHT22;49973;52.084;5.412;2024-03-08T13:08:21;11.10;99.90
61912;DHT22;49973;52.084;5.412;2024-03-08T13:10:53;11.20;99.90
61912;DHT22;49973;52.084;5.412;2024-03-08T13:13:22;11.20;99.90
61912;DHT22;49973;52.084;5.412;2024-03-08T13:15:52;11.20;99.90
61912;DHT22;49973;52.084;5.412;2024-03-08T13:18:21;11.10;99.90
61912;DHT22;49973;52.084;5.412;2024-03-08T13:20:50;11.10;99.90
61912;DHT22;49973;52.084;5.412;2024-03-08T13:23:19;11.10;99.90
61912;DHT22;49973;52.084;5.412;2024-03-08T13:25:48;11.10;99.90
61912;DHT22;49973;52.084;5.412;2024-03-08T13:28:19;11.10;99.90
61912;DHT22;49973;52.084;5.412;2024-03-08T13:30:51;11.10;99.90
61912;DHT22;49973;52.084;5.412;2024-03-08T13:33:26;11.10;99.90
61912;DHT22;49973;52.084;5.412;2024-03-08T13:35:55;11.20;99.90
61912;DHT22;49973;52.084;5.412;2024-03-08T13:38:32;11.20;99.90
61912;DHT22;49973;52.084;5.412;2024-03-08T13:41:01;11.20;99.90
61912;DHT22;49973;52.084;5.412;2024-03-08T13:43:33;11.20;99.90
61912;DHT22;49973;52.084;5.412;2024-03-08T13:46:04;11.20;99.90
61912;DHT22;49973;52.084;5.412;2024-03-08T13:48:34;11.20;99.90
61912;DHT22;49973;52.084;5.412;2024-03-08T13:51:05;11.20;99.90
61912;DHT22;49973;52.084;5.412;2024-03-08T13:53:34;11.20;99.90
61912;DHT22;49973;52.084;5.412;2024-03-08T13:56:03;11.20;99.90
61912;DHT22;49973;52.084;5.412;2024-03-08T13:58:34;11.20;99.90
61912;DHT22;49973;52.084;5.412;2024-03-08T14:01:03;11.20;99.90
61912;DHT22;49973;52.084;5.412;2024-03-08T14:03:39;11.10;99.90
61912;DHT22;49973;52.084;5.412;2024-03-08T14:06:09;11.10;99.90
61912;DHT22;49973;52.084;5.412;2024-03-08T14:08:52;11.00;99.90
61912;DHT22;49973;52.084;5.412;2024-03-08T14:11:24;11.00;99.90
61912;DHT22;49973;52.084;5.412;2024-03-08T14:13:54;11.10;99.90
61912;DHT22;49973;52.084;5.412;2024-03-08T14:16:23;11.00;99.90
61912;DHT22;49973;52.084;5.412;2024-03-08T14:18:52;11.00;99.90
61912;DHT22;49973;52.084;5.412;2024-03-08T14:21:21;11.10;99.90
61912;DHT22;49973;52.084;5.412;2024-03-08T14:23:50;11.00;99.90
61912;DHT22;49973;52.084;5.412;2024-03-08T14:26:19;11.00;99.90
61912;DHT22;49973;52.084;5.412;2024-03-08T14:28:49;11.00;99.90
61912;DHT22;49973;52.084;5.412;2024-03-08T14:31:21;11.00;99.90
61912;DHT22;49973;52.084;5.412;2024-03-08T14:33:53;11.00;99.90
61912;DHT22;49973;52.084;5.412;2024-03-08T14:36:22;11.00;99.90
61912;DHT22;49973;52.084;5.412;2024-03-08T14:38:51;11.00;99.90
61912;DHT22;49973;52.084;5.412;2024-03-08T14:41:20;11.00;99.90
61912;DHT22;49973;52.084;5.412;2024-03-08T14:43:49;11.00;99.90
61912;DHT22;49973;52.084;5.412;2024-03-08T14:46:21;11.00;99.90
61912;DHT22;49973;52.084;5.412;2024-03-08T14:48:51;10.90;99.90
61912;DHT22;49973;52.084;5.412;2024-03-08T14:51:20;10.90;99.90
61912;DHT22;49973;52.084;5.412;2024-03-08T14:53:53;10.90;99.90
61912;DHT22;49973;52.084;5.412;2024-03-08T14:56:23;10.90;99.90
61912;DHT22;49973;52.084;5.412;2024-03-08T14:58:54;10.90;99.90
61912;DHT22;49973;52.084;5.412;2024-03-08T15:01:27;10.90;99.90
61912;DHT22;49973;52.084;5.412;2024-03-08T15:03:56;10.80;99.90
61912;DHT22;49973;52.084;5.412;2024-03-08T15:06:30;10.80;99.90
61912;DHT22;49973;52.084;5.412;2024-03-08T15:09:00;10.70;99.90
61912;DHT22;49973;52.084;5.412;2024-03-08T15:11:38;10.70;99.90
61912;DHT22;49973;52.084;5.412;2024-03-08T15:14:07;10.70;99.90
61912;DHT22;49973;52.084;5.412;2024-03-08T15:16:40;10.70;99.90
61912;DHT22;49973;52.084;5.412;2024-03-08T15:19:10;10.70;99.90
61912;DHT22;49973;52.084;5.412;2024-03-08T15:21:42;10.70;99.90
61912;DHT22;49973;52.084;5.412;2024-03-08T15:24:13;10.60;99.90
61912;DHT22;49973;52.084;5.412;2024-03-08T15:26:48;10.60;99.90
61912;DHT22;49973;52.084;5.412;2024-03-08T15:29:18;10.70;99.90
61912;DHT22;49973;52.084;5.412;2024-03-08T15:31:55;10.60;99.90
61912;DHT22;49973;52.084;5.412;2024-03-08T15:34:24;10.60;99.90
61912;DHT22;49973;52.084;5.412;2024-03-08T15:36:53;10.60;99.90
61912;DHT22;49973;52.084;5.412;2024-03-08T15:39:25;10.50;99.90
61912;DHT22;49973;52.084;5.412;2024-03-08T15:41:54;10.50;99.90
61912;DHT22;49973;52.084;5.412;2024-03-08T15:44:23;10.40;99.90
61912;DHT22;49973;52.084;5.412;2024-03-08T15:46:56;10.40;99.90
61912;DHT22;49973;52.084;5.412;2024-03-08T15:49:25;10.40;99.90
61912;DHT22;49973;52.084;5.412;2024-03-08T15:51:54;10.30;99.90
61912;DHT22;49973;52.084;5.412;2024-03-08T15:54:23;10.40;99.90
61912;DHT22;49973;52.084;5.412;2024-03-08T15:56:51;10.30;99.90
61912;DHT22;49973;52.084;5.412;2024-03-08T15:59:20;10.30;99.90
61912;DHT22;49973;52.084;5.412;2024-03-08T16:01:49;10.20;99.90